Decoded Metar for LFBO (TOULOUSE BLAGNAC in FRANCE) (IATA:TLS) | Meteo·Mobile Aviation Weather
aviador You're here:

LFBO Decoded Metar

TOULOUSE BLAGNAC in FRANCE
Report Time2018-10-19 09:00:00
UTC Time2018-10-19 09:15:59
Flight Rules lifr LIFR
WindVRB at 01 kt
Visibility5000 m
Phenomena:Mist
Clouds:Broken 003 Hf
Ceiling300 ft
Temp15°C (ISA +1)
Dew Point15°C (100% RH)
QNH1018 hPa
Density Alt679 ft
Elevation502 ft
Report Wrong Elevation
Raw Report
LFBO 190900Z AUTO VRB01KT 5000 BR BKN003 15/15 Q1018 BECMG
BKN010=

Extra information for LFBO:More info

Metar Taf Metar & Taf Last 4 Metars F.Rules Stats Wind Profile Meteogram Temp Stats Airport Information Weather charts Add Link Nearby VenuesMetar ALERT Operation Metar Decoded Social comments